This is the latest recevied weather packets stored in our database for station/object SA4AGM-10. If no packets are shown the sender has not sent any weather packets the latest 10 day(s).
| Time | Temp. | Humidity | Pressure | Rain* | Wind** | Luminosity | Snow |
|---|---|---|---|---|---|---|---|
| 1777541008 | 20° C | 32% | 1026.7 hPa | - | - | - | - |
| 1777540108 | 22.22° C | 28% | 1026.7 hPa | - | - | - | - |
| 1777539208 | 21.11° C | 34% | 1026.8 hPa | - | - | - | - |
| 1777538308 | 23.89° C | 30% | 1026.8 hPa | - | - | - | - |
| 1777537408 | 25.56° C | 28% | 1026.9 hPa | - | - | - | - |
| 1777536507 | 25° C | 29% | 1027 hPa | - | - | - | - |
| 1777535607 | 20.56° C | 36% | 1027.2 hPa | - | - | - | - |
| 1777534707 | 18.89° C | 40% | 1027.4 hPa | - | - | - | - |
| 1777533807 | 21.11° C | 36% | 1027.3 hPa | - | - | - | - |
| 1777532907 | 18.89° C | 43% | 1027.4 hPa | - | - | - | - |
| 1777532007 | 13.89° C | 55% | 1027.5 hPa | - | - | - | - |
| 1777531107 | 12.78° C | 62% | 1027.5 hPa | - | - | - | - |
| 1777530207 | 12.78° C | 62% | 1027.5 hPa | - | - | - | - |
| 1777529307 | 11.67° C | 70% | 1027.5 hPa | - | - | - | - |
| 1777528407 | 10.56° C | 74% | 1027.5 hPa | - | - | - | - |
| 1777527507 | 10° C | 78% | 1027.5 hPa | - | - | - | - |
| 1777526606 | 8.89° C | 83% | 1027.3 hPa | - | - | - | - |
| 1777525706 | 7.78° C | 88% | 1027.3 hPa | - | - | - | - |
| 1777524806 | 7.78° C | 91% | 1027.2 hPa | - | - | - | - |
| 1777523906 | 6.67° C | 99% | 1027.3 hPa | - | - | - | - |
| 1777523006 | 6.11° C | 100% | 1027.4 hPa | - | - | - | - |
| 1777522106 | 6.11° C | 100% | 1027.3 hPa | - | - | - | - |
| 1777521206 | 5° C | 100% | 1027.5 hPa | - | - | - | - |
| 1777520306 | 4.44° C | 100% | 1027.3 hPa | - | - | - | - |
| 1777519405 | 4.44° C | 100% | 1027.4 hPa | - | - | - | - |
* Rain since midnight (hover to see other rain measurements)
** Current wind speed in m/s (hover to see current wind gust speed)